sensor_id;sensor_type;location;lat;lon;timestamp;temperature;humidity
72202;SHT30;60105;54.956;73.412;2023-04-03T00:00:11;0.36;55.64
72202;SHT30;60105;54.956;73.412;2023-04-03T00:03:50;0.36;55.54
72202;SHT30;60105;54.956;73.412;2023-04-03T00:06:52;0.35;55.41
72202;SHT30;60105;54.956;73.412;2023-04-03T00:09:59;0.32;55.71
72202;SHT30;60105;54.956;73.412;2023-04-03T00:13:00;0.37;55.33
72202;SHT30;60105;54.956;73.412;2023-04-03T00:16:01;0.36;55.98
72202;SHT30;60105;54.956;73.412;2023-04-03T00:19:04;0.39;54.99
72202;SHT30;60105;54.956;73.412;2023-04-03T00:22:06;0.37;55.26
72202;SHT30;60105;54.956;73.412;2023-04-03T00:25:07;0.29;55.20
72202;SHT30;60105;54.956;73.412;2023-04-03T00:28:50;0.33;55.61
72202;SHT30;60105;54.956;73.412;2023-04-03T00:31:52;0.37;55.29
72202;SHT30;60105;54.956;73.412;2023-04-03T00:34:53;0.36;54.76
72202;SHT30;60105;54.956;73.412;2023-04-03T00:37:54;0.32;55.17
72202;SHT30;60105;54.956;73.412;2023-04-03T00:40:56;0.30;55.12
72202;SHT30;60105;54.956;73.412;2023-04-03T00:43:57;0.37;54.45
72202;SHT30;60105;54.956;73.412;2023-04-03T00:47:12;0.17;55.28
72202;SHT30;60105;54.956;73.412;2023-04-03T00:50:20;0.27;55.23
72202;SHT30;60105;54.956;73.412;2023-04-03T00:53:58;0.33;54.86
72202;SHT30;60105;54.956;73.412;2023-04-03T00:57:00;0.32;54.68
72202;SHT30;60105;54.956;73.412;2023-04-03T01:00:06;0.46;54.81
72202;SHT30;60105;54.956;73.412;2023-04-03T01:03:50;0.47;54.62
72202;SHT30;60105;54.956;73.412;2023-04-03T01:06:54;0.47;54.55
72202;SHT30;60105;54.956;73.412;2023-04-03T01:10:00;0.53;54.49
72202;SHT30;60105;54.956;73.412;2023-04-03T01:13:01;0.52;54.31
72202;SHT30;60105;54.956;73.412;2023-04-03T01:16:18;0.49;54.69
72202;SHT30;60105;54.956;73.412;2023-04-03T01:19:22;0.46;54.78
72202;SHT30;60105;54.956;73.412;2023-04-03T01:22:30;0.43;54.74
72202;SHT30;60105;54.956;73.412;2023-04-03T01:28:50;0.52;54.48
72202;SHT30;60105;54.956;73.412;2023-04-03T01:31:56;0.53;54.89
72202;SHT30;60105;54.956;73.412;2023-04-03T01:34:58;0.54;54.99
72202;SHT30;60105;54.956;73.412;2023-04-03T01:37:59;0.63;54.96
72202;SHT30;60105;54.956;73.412;2023-04-03T01:41:01;0.70;54.27
72202;SHT30;60105;54.956;73.412;2023-04-03T01:44:03;0.71;53.61
72202;SHT30;60105;54.956;73.412;2023-04-03T01:47:07;0.80;53.55
72202;SHT30;60105;54.956;73.412;2023-04-03T01:50:09;0.84;53.37
72202;SHT30;60105;54.956;73.412;2023-04-03T01:53:50;0.84;53.84
72202;SHT30;60105;54.956;73.412;2023-04-03T01:57:03;0.87;53.38
72202;SHT30;60105;54.956;73.412;2023-04-03T02:00:05;0.98;52.86
72202;SHT30;60105;54.956;73.412;2023-04-03T02:03:50;0.96;53.03
72202;SHT30;60105;54.956;73.412;2023-04-03T02:06:52;1.09;52.01
72202;SHT30;60105;54.956;73.412;2023-04-03T02:10:03;1.21;52.34
72202;SHT30;60105;54.956;73.412;2023-04-03T02:13:05;1.28;51.46
72202;SHT30;60105;54.956;73.412;2023-04-03T02:16:08;1.40;51.68
72202;SHT30;60105;54.956;73.412;2023-04-03T02:19:09;1.42;51.88
72202;SHT30;60105;54.956;73.412;2023-04-03T02:22:10;1.50;51.67
72202;SHT30;60105;54.956;73.412;2023-04-03T02:25:12;1.60;51.28
72202;SHT30;60105;54.956;73.412;2023-04-03T02:28:50;1.64;50.69
72202;SHT30;60105;54.956;73.412;2023-04-03T02:31:52;1.70;51.44
72202;SHT30;60105;54.956;73.412;2023-04-03T02:34:54;1.75;51.10
72202;SHT30;60105;54.956;73.412;2023-04-03T02:37:57;1.84;51.42
72202;SHT30;60105;54.956;73.412;2023-04-03T02:41:04;1.90;51.21
72202;SHT30;60105;54.956;73.412;2023-04-03T02:44:08;1.98;51.72
72202;SHT30;60105;54.956;73.412;2023-04-03T02:47:10;2.01;51.53
72202;SHT30;60105;54.956;73.412;2023-04-03T02:50:11;2.04;51.81
72202;SHT30;60105;54.956;73.412;2023-04-03T02:53:50;2.08;51.84
72202;SHT30;60105;54.956;73.412;2023-04-03T02:56:57;2.11;51.82
72202;SHT30;60105;54.956;73.412;2023-04-03T02:59:58;2.12;51.94
72202;SHT30;60105;54.956;73.412;2023-04-03T03:03:50;2.22;52.29
72202;SHT30;60105;54.956;73.412;2023-04-03T03:06:52;2.39;52.18
72202;SHT30;60105;54.956;73.412;2023-04-03T03:09:53;2.45;51.93
72202;SHT30;60105;54.956;73.412;2023-04-03T03:12:55;2.56;51.86
72202;SHT30;60105;54.956;73.412;2023-04-03T03:15:57;2.67;51.67
72202;SHT30;60105;54.956;73.412;2023-04-03T03:18:58;2.77;51.45
72202;SHT30;60105;54.956;73.412;2023-04-03T03:22:11;2.89;50.77
72202;SHT30;60105;54.956;73.412;2023-04-03T03:25:12;2.96;50.63
72202;SHT30;60105;54.956;73.412;2023-04-03T03:28:51;3.05;50.30
72202;SHT30;60105;54.956;73.412;2023-04-03T03:31:52;3.08;50.65
72202;SHT30;60105;54.956;73.412;2023-04-03T03:34:53;3.22;50.71
72202;SHT30;60105;54.956;73.412;2023-04-03T03:37:55;3.38;50.48
72202;SHT30;60105;54.956;73.412;2023-04-03T03:40:57;3.55;49.73
72202;SHT30;60105;54.956;73.412;2023-04-03T03:43:59;3.71;49.18
72202;SHT30;60105;54.956;73.412;2023-04-03T03:47:03;3.80;48.92
72202;SHT30;60105;54.956;73.412;2023-04-03T03:50:05;3.90;49.13
72202;SHT30;60105;54.956;73.412;2023-04-03T03:53:50;4.06;48.57
72202;SHT30;60105;54.956;73.412;2023-04-03T03:56:53;4.16;47.99
72202;SHT30;60105;54.956;73.412;2023-04-03T03:59:57;4.30;48.48
72202;SHT30;60105;54.956;73.412;2023-04-03T04:02:59;4.25;48.06
72202;SHT30;60105;54.956;73.412;2023-04-03T04:06:03;4.33;48.11
72202;SHT30;60105;54.956;73.412;2023-04-03T04:09:05;4.36;49.03
72202;SHT30;60105;54.956;73.412;2023-04-03T04:12:07;4.44;48.60
72202;SHT30;60105;54.956;73.412;2023-04-03T04:15:09;4.60;47.78
72202;SHT30;60105;54.956;73.412;2023-04-03T04:18:50;4.75;47.69
72202;SHT30;60105;54.956;73.412;2023-04-03T04:22:03;4.82;46.67
72202;SHT30;60105;54.956;73.412;2023-04-03T04:25:07;4.90;47.08
72202;SHT30;60105;54.956;73.412;2023-04-03T04:28:50;5.06;45.59
72202;SHT30;60105;54.956;73.412;2023-04-03T04:31:53;5.15;44.94
72202;SHT30;60105;54.956;73.412;2023-04-03T04:34:56;5.26;45.31
72202;SHT30;60105;54.956;73.412;2023-04-03T04:38:19;5.36;46.27
72202;SHT30;60105;54.956;73.412;2023-04-03T04:41:31;5.44;46.18
72202;SHT30;60105;54.956;73.412;2023-04-03T04:44:33;5.52;46.30
72202;SHT30;60105;54.956;73.412;2023-04-03T04:47:35;5.62;44.88
72202;SHT30;60105;54.956;73.412;2023-04-03T04:50:36;5.65;45.21
72202;SHT30;60105;54.956;73.412;2023-04-03T04:53:50;5.69;45.86
72202;SHT30;60105;54.956;73.412;2023-04-03T04:56:53;5.82;45.75
72202;SHT30;60105;54.956;73.412;2023-04-03T04:59:55;5.89;46.44
72202;SHT30;60105;54.956;73.412;2023-04-03T05:02:56;5.95;44.70
72202;SHT30;60105;54.956;73.412;2023-04-03T05:06:09;6.10;44.83
72202;SHT30;60105;54.956;73.412;2023-04-03T05:09:14;6.13;44.92
72202;SHT30;60105;54.956;73.412;2023-04-03T05:12:18;6.18;45.09
72202;SHT30;60105;54.956;73.412;2023-04-03T05:15:27;6.30;44.69
72202;SHT30;60105;54.956;73.412;2023-04-03T05:18:50;6.33;44.88
72202;SHT30;60105;54.956;73.412;2023-04-03T05:21:54;6.54;45.04
72202;SHT30;60105;54.956;73.412;2023-04-03T05:24:56;6.67;43.87
72202;SHT30;60105;54.956;73.412;2023-04-03T05:28:03;6.66;44.77
72202;SHT30;60105;54.956;73.412;2023-04-03T05:31:04;6.66;44.31
72202;SHT30;60105;54.956;73.412;2023-04-03T05:34:18;6.76;44.55
72202;SHT30;60105;54.956;73.412;2023-04-03T05:37:22;6.88;44.65
72202;SHT30;60105;54.956;73.412;2023-04-03T05:40:25;7.01;43.94
72202;SHT30;60105;54.956;73.412;2023-04-03T05:43:50;7.11;43.99
72202;SHT30;60105;54.956;73.412;2023-04-03T05:47:03;7.18;43.76
72202;SHT30;60105;54.956;73.412;2023-04-03T05:50:05;7.22;44.75
72202;SHT30;60105;54.956;73.412;2023-04-03T05:54:00;7.29;44.16
72202;SHT30;60105;54.956;73.412;2023-04-03T05:57:11;7.35;43.61
72202;SHT30;60105;54.956;73.412;2023-04-03T06:00:14;7.39;43.98
72202;SHT30;60105;54.956;73.412;2023-04-03T06:03:50;7.49;44.33
72202;SHT30;60105;54.956;73.412;2023-04-03T06:06:57;7.46;44.93
72202;SHT30;60105;54.956;73.412;2023-04-03T06:10:00;7.52;44.45
72202;SHT30;60105;54.956;73.412;2023-04-03T06:13:04;7.65;45.02
72202;SHT30;60105;54.956;73.412;2023-04-03T06:16:05;7.70;45.54
72202;SHT30;60105;54.956;73.412;2023-04-03T06:19:17;7.73;45.07
72202;SHT30;60105;54.956;73.412;2023-04-03T06:22:23;7.80;44.50
72202;SHT30;60105;54.956;73.412;2023-04-03T06:25:36;7.87;44.26
72202;SHT30;60105;54.956;73.412;2023-04-03T06:28:50;7.87;43.33
72202;SHT30;60105;54.956;73.412;2023-04-03T06:31:51;7.97;43.91
72202;SHT30;60105;54.956;73.412;2023-04-03T06:34:52;8.02;43.02
72202;SHT30;60105;54.956;73.412;2023-04-03T06:37:54;8.08;43.31
72202;SHT30;60105;54.956;73.412;2023-04-03T06:40:55;8.11;44.48
72202;SHT30;60105;54.956;73.412;2023-04-03T06:43:57;8.14;44.43
72202;SHT30;60105;54.956;73.412;2023-04-03T06:47:00;8.15;43.86
72202;SHT30;60105;54.956;73.412;2023-04-03T06:50:02;8.22;45.07
72202;SHT30;60105;54.956;73.412;2023-04-03T06:53:04;8.31;44.54
72202;SHT30;60105;54.956;73.412;2023-04-03T06:56:11;8.35;45.44
72202;SHT30;60105;54.956;73.412;2023-04-03T06:59:18;8.32;44.90
72202;SHT30;60105;54.956;73.412;2023-04-03T07:02:19;8.28;44.64
72202;SHT30;60105;54.956;73.412;2023-04-03T07:05:21;8.28;45.50
72202;SHT30;60105;54.956;73.412;2023-04-03T07:08:22;8.26;45.54
72202;SHT30;60105;54.956;73.412;2023-04-03T07:11:24;8.35;46.11
72202;SHT30;60105;54.956;73.412;2023-04-03T07:14:26;8.39;45.36
72202;SHT30;60105;54.956;73.412;2023-04-03T07:17:28;8.49;45.42
72202;SHT30;60105;54.956;73.412;2023-04-03T07:20:29;8.50;45.27
72202;SHT30;60105;54.956;73.412;2023-04-03T07:23:50;8.52;45.74
72202;SHT30;60105;54.956;73.412;2023-04-03T07:26:52;8.63;44.82
72202;SHT30;60105;54.956;73.412;2023-04-03T07:29:54;8.59;45.32
72202;SHT30;60105;54.956;73.412;2023-04-03T07:32:56;8.56;44.95
72202;SHT30;60105;54.956;73.412;2023-04-03T07:35:59;8.55;45.02
72202;SHT30;60105;54.956;73.412;2023-04-03T07:39:01;8.63;45.28
72202;SHT30;60105;54.956;73.412;2023-04-03T07:42:02;8.79;45.08
72202;SHT30;60105;54.956;73.412;2023-04-03T07:45:04;8.79;44.97
72202;SHT30;60105;54.956;73.412;2023-04-03T07:48:06;8.81;45.13
72202;SHT30;60105;54.956;73.412;2023-04-03T07:51:07;8.84;45.24
72202;SHT30;60105;54.956;73.412;2023-04-03T07:54:08;8.91;44.82
72202;SHT30;60105;54.956;73.412;2023-04-03T07:57:10;8.96;44.83
72202;SHT30;60105;54.956;73.412;2023-04-03T08:00:11;9.08;44.96
72202;SHT30;60105;54.956;73.412;2023-04-03T08:04:15;9.17;45.99
72202;SHT30;60105;54.956;73.412;2023-04-03T08:07:27;9.20;44.67
72202;SHT30;60105;54.956;73.412;2023-04-03T08:10:30;9.21;44.66
72202;SHT30;60105;54.956;73.412;2023-04-03T08:13:42;9.30;44.99
72202;SHT30;60105;54.956;73.412;2023-04-03T08:16:45;9.35;44.79
72202;SHT30;60105;54.956;73.412;2023-04-03T08:19:46;9.42;44.17
72202;SHT30;60105;54.956;73.412;2023-04-03T08:22:48;9.48;44.72
72202;SHT30;60105;54.956;73.412;2023-04-03T08:25:49;9.58;44.63
72202;SHT30;60105;54.956;73.412;2023-04-03T08:28:52;9.49;44.52
72202;SHT30;60105;54.956;73.412;2023-04-03T08:31:53;9.48;44.92
72202;SHT30;60105;54.956;73.412;2023-04-03T08:34:54;9.59;45.09
72202;SHT30;60105;54.956;73.412;2023-04-03T08:37:55;9.62;44.65
72202;SHT30;60105;54.956;73.412;2023-04-03T08:41:09;9.68;44.39
72202;SHT30;60105;54.956;73.412;2023-04-03T08:51:45;9.89;43.33
72202;SHT30;60105;54.956;73.412;2023-04-03T08:54:56;9.92;44.58
72202;SHT30;60105;54.956;73.412;2023-04-03T09:01:43;10.03;45.58
72202;SHT30;60105;54.956;73.412;2023-04-03T09:04:44;10.09;45.12
72202;SHT30;60105;54.956;73.412;2023-04-03T09:08:00;10.13;45.42
72202;SHT30;60105;54.956;73.412;2023-04-03T09:14:38;10.14;45.67
72202;SHT30;60105;54.956;73.412;2023-04-03T09:17:41;10.14;45.74
72202;SHT30;60105;54.956;73.412;2023-04-03T09:24:05;10.24;45.72
72202;SHT30;60105;54.956;73.412;2023-04-03T09:27:11;10.29;45.71
72202;SHT30;60105;54.956;73.412;2023-04-03T09:30:26;10.29;43.95
72202;SHT30;60105;54.956;73.412;2023-04-03T09:33:28;10.29;45.34
72202;SHT30;60105;54.956;73.412;2023-04-03T09:36:43;10.31;45.68
72202;SHT30;60105;54.956;73.412;2023-04-03T09:39:53;10.27;45.51
72202;SHT30;60105;54.956;73.412;2023-04-03T09:43:19;10.25;45.23
72202;SHT30;60105;54.956;73.412;2023-04-03T09:46:42;10.30;46.06
72202;SHT30;60105;54.956;73.412;2023-04-03T09:49:43;10.36;46.32
72202;SHT30;60105;54.956;73.412;2023-04-03T09:52:50;10.33;44.79
72202;SHT30;60105;54.956;73.412;2023-04-03T09:55:52;10.34;44.34
72202;SHT30;60105;54.956;73.412;2023-04-03T10:02:45;10.41;45.20
72202;SHT30;60105;54.956;73.412;2023-04-03T10:05:45;10.44;45.52
72202;SHT30;60105;54.956;73.412;2023-04-03T10:08:58;10.40;43.33
72202;SHT30;60105;54.956;73.412;2023-04-03T10:12:02;10.43;43.39
72202;SHT30;60105;54.956;73.412;2023-04-03T10:15:13;10.47;44.35
72202;SHT30;60105;54.956;73.412;2023-04-03T10:18:33;10.54;45.61
72202;SHT30;60105;54.956;73.412;2023-04-03T10:21:55;10.55;44.01
72202;SHT30;60105;54.956;73.412;2023-04-03T10:25:26;10.58;43.59
72202;SHT30;60105;54.956;73.412;2023-04-03T10:35:18;10.62;42.74
72202;SHT30;60105;54.956;73.412;2023-04-03T10:38:30;10.55;42.72
72202;SHT30;60105;54.956;73.412;2023-04-03T10:42:08;10.52;42.50
72202;SHT30;60105;54.956;73.412;2023-04-03T10:45:30;10.60;42.57
72202;SHT30;60105;54.956;73.412;2023-04-03T10:59:33;10.62;43.00
72202;SHT30;60105;54.956;73.412;2023-04-03T11:05:51;10.71;42.25
72202;SHT30;60105;54.956;73.412;2023-04-03T11:09:01;10.73;42.54
72202;SHT30;60105;54.956;73.412;2023-04-03T11:12:10;10.73;42.62
72202;SHT30;60105;54.956;73.412;2023-04-03T11:15:16;10.75;42.17
72202;SHT30;60105;54.956;73.412;2023-04-03T11:18:26;10.73;41.31
72202;SHT30;60105;54.956;73.412;2023-04-03T11:21:46;10.75;41.61
72202;SHT30;60105;54.956;73.412;2023-04-03T11:24:59;10.69;40.26
72202;SHT30;60105;54.956;73.412;2023-04-03T11:28:09;10.72;42.01
72202;SHT30;60105;54.956;73.412;2023-04-03T11:34:56;10.64;41.04
72202;SHT30;60105;54.956;73.412;2023-04-03T11:38:00;10.67;40.19
72202;SHT30;60105;54.956;73.412;2023-04-03T11:41:11;10.58;41.17
72202;SHT30;60105;54.956;73.412;2023-04-03T11:44:35;10.62;41.97
72202;SHT30;60105;54.956;73.412;2023-04-03T11:47:52;10.61;40.46
72202;SHT30;60105;54.956;73.412;2023-04-03T11:50:55;10.57;40.22
72202;SHT30;60105;54.956;73.412;2023-04-03T11:54:35;10.43;40.28
72202;SHT30;60105;54.956;73.412;2023-04-03T11:58:10;10.40;40.28
72202;SHT30;60105;54.956;73.412;2023-04-03T12:05:27;10.43;39.95
72202;SHT30;60105;54.956;73.412;2023-04-03T12:11:43;10.17;40.02
72202;SHT30;60105;54.956;73.412;2023-04-03T12:14:51;10.17;41.15
72202;SHT30;60105;54.956;73.412;2023-04-03T12:17:52;10.20;41.77
72202;SHT30;60105;54.956;73.412;2023-04-03T12:20:56;10.14;42.14
72202;SHT30;60105;54.956;73.412;2023-04-03T12:30:43;9.93;42.46
72202;SHT30;60105;54.956;73.412;2023-04-03T12:45:08;9.65;47.03
72202;SHT30;60105;54.956;73.412;2023-04-03T12:48:18;9.51;48.62
72202;SHT30;60105;54.956;73.412;2023-04-03T12:51:42;9.41;50.09
72202;SHT30;60105;54.956;73.412;2023-04-03T12:54:46;9.31;50.89
72202;SHT30;60105;54.956;73.412;2023-04-03T12:57:53;9.15;52.21
72202;SHT30;60105;54.956;73.412;2023-04-03T13:01:43;9.04;53.18
72202;SHT30;60105;54.956;73.412;2023-04-03T13:04:51;8.93;53.59
72202;SHT30;60105;54.956;73.412;2023-04-03T13:08:00;8.83;54.39
72202;SHT30;60105;54.956;73.412;2023-04-03T13:11:11;8.75;54.98
72202;SHT30;60105;54.956;73.412;2023-04-03T13:14:25;8.65;55.39
72202;SHT30;60105;54.956;73.412;2023-04-03T13:17:29;8.55;55.51
72202;SHT30;60105;54.956;73.412;2023-04-03T13:20:33;8.46;55.78
72202;SHT30;60105;54.956;73.412;2023-04-03T13:23:45;8.36;55.84
72202;SHT30;60105;54.956;73.412;2023-04-03T13:26:48;8.24;55.89
72202;SHT30;60105;54.956;73.412;2023-04-03T13:29:54;8.12;56.11
72202;SHT30;60105;54.956;73.412;2023-04-03T13:33:23;8.02;56.01
72202;SHT30;60105;54.956;73.412;2023-04-03T13:36:46;7.95;56.20
72202;SHT30;60105;54.956;73.412;2023-04-03T13:43:23;7.81;56.99
72202;SHT30;60105;54.956;73.412;2023-04-03T13:46:42;7.71;57.34
72202;SHT30;60105;54.956;73.412;2023-04-03T13:53:13;7.59;58.13
72202;SHT30;60105;54.956;73.412;2023-04-03T13:56:42;7.49;58.48
72202;SHT30;60105;54.956;73.412;2023-04-03T13:59:44;7.45;58.50
72202;SHT30;60105;54.956;73.412;2023-04-03T14:02:47;7.40;58.78
72202;SHT30;60105;54.956;73.412;2023-04-03T14:05:48;7.39;58.82
72202;SHT30;60105;54.956;73.412;2023-04-03T14:08:50;7.33;58.84
72202;SHT30;60105;54.956;73.412;2023-04-03T14:12:00;7.30;58.97
72202;SHT30;60105;54.956;73.412;2023-04-03T14:15:27;7.26;59.10
72202;SHT30;60105;54.956;73.412;2023-04-03T14:18:29;7.22;58.87
72202;SHT30;60105;54.956;73.412;2023-04-03T14:21:42;7.16;58.94
72202;SHT30;60105;54.956;73.412;2023-04-03T14:24:44;7.11;59.08
72202;SHT30;60105;54.956;73.412;2023-04-03T14:27:48;6.99;59.18
72202;SHT30;60105;54.956;73.412;2023-04-03T14:30:50;6.98;59.23
72202;SHT30;60105;54.956;73.412;2023-04-03T14:33:52;6.94;58.82
72202;SHT30;60105;54.956;73.412;2023-04-03T14:36:53;6.92;58.34
72202;SHT30;60105;54.956;73.412;2023-04-03T14:39:56;6.85;57.95
72202;SHT30;60105;54.956;73.412;2023-04-03T14:42:57;6.81;57.77
72202;SHT30;60105;54.956;73.412;2023-04-03T14:46:43;6.80;57.37
72202;SHT30;60105;54.956;73.412;2023-04-03T14:49:44;6.74;57.44
72202;SHT30;60105;54.956;73.412;2023-04-03T14:52:53;6.73;57.08
72202;SHT30;60105;54.956;73.412;2023-04-03T14:55:54;6.73;56.90
72202;SHT30;60105;54.956;73.412;2023-04-03T14:58:59;6.61;57.19
72202;SHT30;60105;54.956;73.412;2023-04-03T15:02:01;6.57;57.34
72202;SHT30;60105;54.956;73.412;2023-04-03T15:05:10;6.53;57.86
72202;SHT30;60105;54.956;73.412;2023-04-03T15:08:19;6.50;57.98
72202;SHT30;60105;54.956;73.412;2023-04-03T15:11:31;6.46;58.14
72202;SHT30;60105;54.956;73.412;2023-04-03T15:14:32;6.43;58.45
72202;SHT30;60105;54.956;73.412;2023-04-03T15:17:36;6.40;58.63
72202;SHT30;60105;54.956;73.412;2023-04-03T15:20:39;6.43;58.74
72202;SHT30;60105;54.956;73.412;2023-04-03T15:23:41;6.39;58.77
72202;SHT30;60105;54.956;73.412;2023-04-03T15:26:43;6.39;58.74
72202;SHT30;60105;54.956;73.412;2023-04-03T15:29:45;6.33;58.77
72202;SHT30;60105;54.956;73.412;2023-04-03T15:32:46;6.36;58.86
72202;SHT30;60105;54.956;73.412;2023-04-03T15:35:48;6.32;58.86
72202;SHT30;60105;54.956;73.412;2023-04-03T15:38:49;6.32;58.74
72202;SHT30;60105;54.956;73.412;2023-04-03T15:42:01;6.32;58.88
72202;SHT30;60105;54.956;73.412;2023-04-03T15:45:07;6.32;58.70
72202;SHT30;60105;54.956;73.412;2023-04-03T15:48:10;6.29;58.89
72202;SHT30;60105;54.956;73.412;2023-04-03T15:51:42;6.30;58.87
72202;SHT30;60105;54.956;73.412;2023-04-03T15:54:43;6.30;59.01
72202;SHT30;60105;54.956;73.412;2023-04-03T15:57:44;6.30;58.53
72202;SHT30;60105;54.956;73.412;2023-04-03T16:00:56;6.30;58.71
72202;SHT30;60105;54.956;73.412;2023-04-03T16:03:57;6.30;58.44
72202;SHT30;60105;54.956;73.412;2023-04-03T16:07:01;6.36;58.59
72202;SHT30;60105;54.956;73.412;2023-04-03T16:10:04;6.30;58.11
72202;SHT30;60105;54.956;73.412;2023-04-03T16:13:05;6.28;58.22
72202;SHT30;60105;54.956;73.412;2023-04-03T16:16:42;6.28;58.11
72202;SHT30;60105;54.956;73.412;2023-04-03T16:19:43;6.30;58.04
72202;SHT30;60105;54.956;73.412;2023-04-03T16:22:45;6.26;57.94
72202;SHT30;60105;54.956;73.412;2023-04-03T16:25:46;6.26;57.74
72202;SHT30;60105;54.956;73.412;2023-04-03T16:28:48;6.30;57.59
72202;SHT30;60105;54.956;73.412;2023-04-03T16:31:59;6.22;57.51
72202;SHT30;60105;54.956;73.412;2023-04-03T16:35:00;6.22;57.37
72202;SHT30;60105;54.956;73.412;2023-04-03T16:38:12;6.20;57.40
72202;SHT30;60105;54.956;73.412;2023-04-03T16:41:13;6.18;57.24
72202;SHT30;60105;54.956;73.412;2023-04-03T16:44:15;6.15;57.15
72202;SHT30;60105;54.956;73.412;2023-04-03T16:47:26;6.09;57.30
72202;SHT30;60105;54.956;73.412;2023-04-03T16:50:27;6.12;56.94
72202;SHT30;60105;54.956;73.412;2023-04-03T16:53:29;6.09;56.61
72202;SHT30;60105;54.956;73.412;2023-04-03T16:56:42;6.10;56.53
72202;SHT30;60105;54.956;73.412;2023-04-03T16:59:43;6.06;56.37
72202;SHT30;60105;54.956;73.412;2023-04-03T17:02:44;6.08;56.14
72202;SHT30;60105;54.956;73.412;2023-04-03T17:05:49;6.03;56.17
72202;SHT30;60105;54.956;73.412;2023-04-03T17:09:00;6.03;55.80
72202;SHT30;60105;54.956;73.412;2023-04-03T17:12:02;5.98;55.65
72202;SHT30;60105;54.956;73.412;2023-04-03T17:15:03;5.97;55.62
72202;SHT30;60105;54.956;73.412;2023-04-03T17:18:05;5.97;55.47
72202;SHT30;60105;54.956;73.412;2023-04-03T17:21:42;5.97;54.74
72202;SHT30;60105;54.956;73.412;2023-04-03T17:24:44;5.98;54.77
72202;SHT30;60105;54.956;73.412;2023-04-03T17:27:45;5.99;54.31
72202;SHT30;60105;54.956;73.412;2023-04-03T17:30:47;6.02;53.95
72202;SHT30;60105;54.956;73.412;2023-04-03T17:33:58;6.02;53.75
72202;SHT30;60105;54.956;73.412;2023-04-03T17:37:02;6.01;53.15
72202;SHT30;60105;54.956;73.412;2023-04-03T17:40:05;5.98;53.04
72202;SHT30;60105;54.956;73.412;2023-04-03T17:43:06;5.98;52.79
72202;SHT30;60105;54.956;73.412;2023-04-03T17:46:42;5.97;52.47
72202;SHT30;60105;54.956;73.412;2023-04-03T17:49:43;5.99;52.36
72202;SHT30;60105;54.956;73.412;2023-04-03T17:52:44;5.99;51.86
72202;SHT30;60105;54.956;73.412;2023-04-03T17:55:50;6.05;51.40
72202;SHT30;60105;54.956;73.412;2023-04-03T17:58:56;6.02;51.45
72202;SHT30;60105;54.956;73.412;2023-04-03T18:02:00;6.06;50.79
72202;SHT30;60105;54.956;73.412;2023-04-03T18:05:01;5.99;51.10
72202;SHT30;60105;54.956;73.412;2023-04-03T18:08:09;5.99;50.37
72202;SHT30;60105;54.956;73.412;2023-04-03T18:11:11;6.03;50.43
72202;SHT30;60105;54.956;73.412;2023-04-03T18:14:19;5.98;50.45
72202;SHT30;60105;54.956;73.412;2023-04-03T18:17:21;5.98;50.18
72202;SHT30;60105;54.956;73.412;2023-04-03T18:20:23;5.95;49.73
72202;SHT30;60105;54.956;73.412;2023-04-03T18:23:26;5.91;50.01
72202;SHT30;60105;54.956;73.412;2023-04-03T18:26:42;5.94;49.74
72202;SHT30;60105;54.956;73.412;2023-04-03T18:29:49;5.98;49.39
72202;SHT30;60105;54.956;73.412;2023-04-03T18:32:56;5.92;49.67
72202;SHT30;60105;54.956;73.412;2023-04-03T18:36:42;5.91;49.92
72202;SHT30;60105;54.956;73.412;2023-04-03T18:39:53;5.85;49.50
72202;SHT30;60105;54.956;73.412;2023-04-03T18:43:00;5.84;49.55
72202;SHT30;60105;54.956;73.412;2023-04-03T18:46:42;5.84;49.36
72202;SHT30;60105;54.956;73.412;2023-04-03T18:49:43;5.84;49.54
72202;SHT30;60105;54.956;73.412;2023-04-03T18:52:45;5.78;49.48
72202;SHT30;60105;54.956;73.412;2023-04-03T18:55:50;5.79;49.61
72202;SHT30;60105;54.956;73.412;2023-04-03T18:58:56;5.72;49.51
72202;SHT30;60105;54.956;73.412;2023-04-03T19:01:58;5.68;49.41
72202;SHT30;60105;54.956;73.412;2023-04-03T19:05:13;5.65;49.71
72202;SHT30;60105;54.956;73.412;2023-04-03T19:08:14;5.65;49.20
72202;SHT30;60105;54.956;73.412;2023-04-03T19:11:16;5.62;49.00
72202;SHT30;60105;54.956;73.412;2023-04-03T19:14:17;5.67;48.80
72202;SHT30;60105;54.956;73.412;2023-04-03T19:17:18;5.62;48.61
72202;SHT30;60105;54.956;73.412;2023-04-03T19:20:20;5.62;47.87
72202;SHT30;60105;54.956;73.412;2023-04-03T19:23:22;5.62;47.88
72202;SHT30;60105;54.956;73.412;2023-04-03T19:26:41;5.64;47.72
72202;SHT30;60105;54.956;73.412;2023-04-03T19:29:43;5.60;47.77
72202;SHT30;60105;54.956;73.412;2023-04-03T19:32:44;5.57;48.01
72202;SHT30;60105;54.956;73.412;2023-04-03T19:35:56;5.55;47.81
72202;SHT30;60105;54.956;73.412;2023-04-03T19:38:57;5.55;47.56
72202;SHT30;60105;54.956;73.412;2023-04-03T19:42:09;5.48;47.82
72202;SHT30;60105;54.956;73.412;2023-04-03T19:45:11;5.48;47.53
72202;SHT30;60105;54.956;73.412;2023-04-03T19:48:14;5.46;47.66
72202;SHT30;60105;54.956;73.412;2023-04-03T19:51:42;5.48;47.21
72202;SHT30;60105;54.956;73.412;2023-04-03T19:54:43;5.47;47.39
72202;SHT30;60105;54.956;73.412;2023-04-03T19:57:44;5.48;47.48
72202;SHT30;60105;54.956;73.412;2023-04-03T20:00:45;5.50;47.05
72202;SHT30;60105;54.956;73.412;2023-04-03T20:03:47;5.51;46.54
72202;SHT30;60105;54.956;73.412;2023-04-03T20:06:48;5.52;46.89
72202;SHT30;60105;54.956;73.412;2023-04-03T20:09:50;5.50;47.03
72202;SHT30;60105;54.956;73.412;2023-04-03T20:12:51;5.50;46.03
72202;SHT30;60105;54.956;73.412;2023-04-03T20:16:43;5.51;46.07
72202;SHT30;60105;54.956;73.412;2023-04-03T20:19:55;5.48;46.55
72202;SHT30;60105;54.956;73.412;2023-04-03T20:23:11;5.41;46.82
72202;SHT30;60105;54.956;73.412;2023-04-03T20:26:42;5.43;46.11
72202;SHT30;60105;54.956;73.412;2023-04-03T20:29:51;5.39;46.20
72202;SHT30;60105;54.956;73.412;2023-04-03T20:32:52;5.41;45.87
72202;SHT30;60105;54.956;73.412;2023-04-03T20:35:55;5.41;46.34
72202;SHT30;60105;54.956;73.412;2023-04-03T20:38:56;5.37;46.39
72202;SHT30;60105;54.956;73.412;2023-04-03T20:42:02;5.39;46.38
72202;SHT30;60105;54.956;73.412;2023-04-03T20:45:04;5.36;45.60
72202;SHT30;60105;54.956;73.412;2023-04-03T20:48:15;5.34;46.36
72202;SHT30;60105;54.956;73.412;2023-04-03T20:51:41;5.30;45.85
72202;SHT30;60105;54.956;73.412;2023-04-03T20:54:43;5.36;46.02
72202;SHT30;60105;54.956;73.412;2023-04-03T20:57:45;5.34;45.75
72202;SHT30;60105;54.956;73.412;2023-04-03T21:00:46;5.34;46.05
72202;SHT30;60105;54.956;73.412;2023-04-03T21:03:49;5.34;45.42
72202;SHT30;60105;54.956;73.412;2023-04-03T21:21:42;5.31;45.80
72202;SHT30;60105;54.956;73.412;2023-04-03T21:24:46;5.27;45.48